Dagus Mines, PA (15831)

10:05 PM EST on February 10, 2016 (GMT -0500)
APRSWXNET | | Change Station
CLOSE
Current Station
Personal Weather Station
Location: Saint Marys, PA
Elevation: 1580 ft
Nearby Weather Stations
Active Advisory: Winter Weather Advisory Active Notice: Local Storm Report

Elev 1580 ft 41.42 °N, 78.58 °W | Updated 27 minutes ago

Overcast
Overcast
14 °F
Feels Like 14 °F
N
1
Wind Variable Wind from West
Gusts 0.0 mph

Today
High -- | Low -- °F
--% Chance of Precip.
Yesterday
High -- | Low -- °F
Precip. -- in
Pressure 29.87 in
Visibility 10.0 miles
Clouds Scattered Clouds 5000 ft
Windchill 14 °F
Dew Point 8 °F
Humidity 77%
Rainfall in
Snow Depth Not available.
7:16 AM 5:41 PM
Waxing Crescent, 9% visible
METAR KDUJ 110253Z AUTO 27005KT 10SM SCT050 M12/M14 A2978 RMK AO2 SLP114 60000 T11171144 51012
Pressure 29.87 in
Visibility 10.0 miles
Clouds Scattered Clouds 5000 ft
Windchill 14 °F
Dew Point 8 °F
Humidity 77%
Rainfall in
Snow Depth Not available.
7:16 AM 5:41 PM
Waxing Crescent, 9% visible
METAR KDUJ 110253Z AUTO 27005KT 10SM SCT050 M12/M14 A2978 RMK AO2 SLP114 60000 T11171144 51012

10-Day Weather Forecast

Almanac

Astronomy

Feb. 10, 2016 Rise Set
Actual Time
Civil Twilight
Nautical Twilight
Astronomical Twilight
Moon
Length of Visible Light
Length of Day
Tomorrow will be .
, % of the Moon is Illuminated

Today's Extremes

State Highs State Lows

Community

WunderPhotos

Upload Photos

1,891,994 photos uploaded!

WunderBlog® & News

Nearby

Air Quality

  Air Quality AQ Index Pollutant
Not available.

Snow Depth

Station Depth Elevation

Earthquake Activity

City Distance Mag. Time & Date
Minimum magnitude displayed is 2.5.

Coastal Water Temperatures

Place Temperature

Stations

Nearby Weather Stations

Station Location Temp. Windchill Dew Point Humidity Wind Precip. Elev Updated Type
                   

Watches & Warnings

Winter Weather Advisory
Issued: 9:12 PM EST Feb. 10, 2016 – National Weather Service

... Winter Weather Advisory remains in effect until 10 PM EST
Thursday...

* snow accumulations... 3 to 5 inches.

* Timing... occasional snow showers of varying intensity will occur
overnight into Thursday evening.

* Winds... west to northwest winds of 10 to 15 mph with gusts
around 25 mph will lead to areas of blowing and drifting snow.

* Impacts... untreated roads will be snow covered and hazardous.
Visibility could be greatly reduced during brief heavier
squalls... and in areas of blowing snow.

Precautionary/preparedness actions...

Hazardous winter weather conditions are expected or occurring.
Use caution if traveling. For the latest weather information... go
to weather.Gov/statecollege or monitor NOAA Weather Radio.

Report snow or ice accumulation to the National Weather Service
State College by sending an email to ctp.Stormreports@noaa.Gov...
posting to the NWS State College facebook Page... or tweet
@nwsstatecollege with the hashtag c... T... p... W... x.



La corte